sensor_id;sensor_type;location;lat;lon;timestamp;temperature;humidity
15409;DHT22;7803;48.130;13.788;2023-09-07T00:00:58;23.50;99.90
15409;DHT22;7803;48.130;13.788;2023-09-07T00:04:01;23.50;99.90
15409;DHT22;7803;48.130;13.788;2023-09-07T00:07:05;23.50;99.90
15409;DHT22;7803;48.130;13.788;2023-09-07T00:10:07;23.50;99.90
15409;DHT22;7803;48.130;13.788;2023-09-07T00:13:09;23.50;99.90
15409;DHT22;7803;48.130;13.788;2023-09-07T00:16:11;23.50;99.90
15409;DHT22;7803;48.130;13.788;2023-09-07T00:19:13;23.50;99.90
15409;DHT22;7803;48.130;13.788;2023-09-07T00:22:17;23.50;99.90
15409;DHT22;7803;48.130;13.788;2023-09-07T00:25:19;23.50;99.90
15409;DHT22;7803;48.130;13.788;2023-09-07T00:28:22;23.50;99.90
15409;DHT22;7803;48.130;13.788;2023-09-07T00:31:24;23.50;99.90
15409;DHT22;7803;48.130;13.788;2023-09-07T00:34:26;23.50;99.90
15409;DHT22;7803;48.130;13.788;2023-09-07T00:37:29;23.50;99.90
15409;DHT22;7803;48.130;13.788;2023-09-07T00:40:31;23.50;99.90
15409;DHT22;7803;48.130;13.788;2023-09-07T00:43:33;23.50;99.90
15409;DHT22;7803;48.130;13.788;2023-09-07T00:46:35;23.50;99.90
15409;DHT22;7803;48.130;13.788;2023-09-07T00:49:37;23.50;99.90
15409;DHT22;7803;48.130;13.788;2023-09-07T00:52:42;23.50;99.90
15409;DHT22;7803;48.130;13.788;2023-09-07T00:55:45;23.50;99.90
15409;DHT22;7803;48.130;13.788;2023-09-07T00:58:47;23.50;99.90
15409;DHT22;7803;48.130;13.788;2023-09-07T01:01:49;23.50;99.90
15409;DHT22;7803;48.130;13.788;2023-09-07T01:04:52;23.50;99.90
15409;DHT22;7803;48.130;13.788;2023-09-07T01:08:00;23.50;99.90
15409;DHT22;7803;48.130;13.788;2023-09-07T01:11:13;23.50;99.90
15409;DHT22;7803;48.130;13.788;2023-09-07T01:14:15;23.40;99.90
15409;DHT22;7803;48.130;13.788;2023-09-07T01:17:17;23.50;99.90
15409;DHT22;7803;48.130;13.788;2023-09-07T01:20:20;23.50;99.90
15409;DHT22;7803;48.130;13.788;2023-09-07T01:23:26;23.50;99.90
15409;DHT22;7803;48.130;13.788;2023-09-07T01:29:51;23.50;99.90
15409;DHT22;7803;48.130;13.788;2023-09-07T01:32:53;23.40;99.90
15409;DHT22;7803;48.130;13.788;2023-09-07T01:35:55;23.40;99.90
15409;DHT22;7803;48.130;13.788;2023-09-07T01:38:58;23.40;99.90
15409;DHT22;7803;48.130;13.788;2023-09-07T01:42:00;23.50;99.90
15409;DHT22;7803;48.130;13.788;2023-09-07T01:45:03;23.50;99.90
15409;DHT22;7803;48.130;13.788;2023-09-07T01:48:08;23.50;99.90
15409;DHT22;7803;48.130;13.788;2023-09-07T01:51:10;23.40;99.90
15409;DHT22;7803;48.130;13.788;2023-09-07T01:54:13;23.40;99.90
15409;DHT22;7803;48.130;13.788;2023-09-07T01:57:15;23.50;99.90
15409;DHT22;7803;48.130;13.788;2023-09-07T02:00:17;23.50;99.90
15409;DHT22;7803;48.130;13.788;2023-09-07T02:03:19;23.40;99.90
15409;DHT22;7803;48.130;13.788;2023-09-07T02:06:21;23.40;99.90
15409;DHT22;7803;48.130;13.788;2023-09-07T02:09:25;23.40;99.90
15409;DHT22;7803;48.130;13.788;2023-09-07T02:12:29;23.40;99.90
15409;DHT22;7803;48.130;13.788;2023-09-07T02:15:31;23.40;99.90
15409;DHT22;7803;48.130;13.788;2023-09-07T02:18:33;23.40;99.90
15409;DHT22;7803;48.130;13.788;2023-09-07T02:21:35;23.40;99.90
15409;DHT22;7803;48.130;13.788;2023-09-07T02:24:39;23.40;99.90
15409;DHT22;7803;48.130;13.788;2023-09-07T02:27:41;23.40;99.90
15409;DHT22;7803;48.130;13.788;2023-09-07T02:30:43;23.40;99.90
15409;DHT22;7803;48.130;13.788;2023-09-07T02:33:45;23.40;99.90
15409;DHT22;7803;48.130;13.788;2023-09-07T02:36:47;23.40;99.90
15409;DHT22;7803;48.130;13.788;2023-09-07T02:39:50;23.40;99.90
15409;DHT22;7803;48.130;13.788;2023-09-07T02:42:52;23.40;99.90
15409;DHT22;7803;48.130;13.788;2023-09-07T02:45:54;23.40;99.90
15409;DHT22;7803;48.130;13.788;2023-09-07T02:48:56;23.40;99.90
15409;DHT22;7803;48.130;13.788;2023-09-07T02:51:58;23.40;99.90
15409;DHT22;7803;48.130;13.788;2023-09-07T02:55:02;23.40;99.90
15409;DHT22;7803;48.130;13.788;2023-09-07T02:58:04;23.40;99.90
15409;DHT22;7803;48.130;13.788;2023-09-07T03:01:06;23.40;99.90
15409;DHT22;7803;48.130;13.788;2023-09-07T03:04:10;23.40;99.90
15409;DHT22;7803;48.130;13.788;2023-09-07T03:07:12;23.40;99.90
15409;DHT22;7803;48.130;13.788;2023-09-07T03:10:15;23.40;99.90
15409;DHT22;7803;48.130;13.788;2023-09-07T03:13:17;23.40;99.90
15409;DHT22;7803;48.130;13.788;2023-09-07T03:16:19;23.40;99.90
15409;DHT22;7803;48.130;13.788;2023-09-07T03:19:21;23.40;99.90
15409;DHT22;7803;48.130;13.788;2023-09-07T03:22:23;23.40;99.90
15409;DHT22;7803;48.130;13.788;2023-09-07T03:25:26;23.40;99.90
15409;DHT22;7803;48.130;13.788;2023-09-07T03:28:28;23.40;99.90
15409;DHT22;7803;48.130;13.788;2023-09-07T03:31:30;23.40;99.90
15409;DHT22;7803;48.130;13.788;2023-09-07T03:34:32;23.40;99.90
15409;DHT22;7803;48.130;13.788;2023-09-07T03:37:37;23.40;99.90
15409;DHT22;7803;48.130;13.788;2023-09-07T03:40:40;23.40;99.90
15409;DHT22;7803;48.130;13.788;2023-09-07T03:43:42;23.40;99.90
15409;DHT22;7803;48.130;13.788;2023-09-07T03:46:45;23.40;99.90
15409;DHT22;7803;48.130;13.788;2023-09-07T03:49:49;23.40;99.90
15409;DHT22;7803;48.130;13.788;2023-09-07T03:52:51;23.40;99.90
15409;DHT22;7803;48.130;13.788;2023-09-07T03:55:54;23.40;99.90
15409;DHT22;7803;48.130;13.788;2023-09-07T03:58:56;23.40;99.90
15409;DHT22;7803;48.130;13.788;2023-09-07T04:01:58;23.40;99.90
15409;DHT22;7803;48.130;13.788;2023-09-07T04:05:00;23.40;99.90
15409;DHT22;7803;48.130;13.788;2023-09-07T04:08:04;23.50;99.90
15409;DHT22;7803;48.130;13.788;2023-09-07T04:11:08;23.50;99.90
15409;DHT22;7803;48.130;13.788;2023-09-07T04:14:10;23.50;99.90
15409;DHT22;7803;48.130;13.788;2023-09-07T04:17:12;23.50;99.90
15409;DHT22;7803;48.130;13.788;2023-09-07T04:20:14;23.50;99.90
15409;DHT22;7803;48.130;13.788;2023-09-07T04:23:16;23.50;99.90
15409;DHT22;7803;48.130;13.788;2023-09-07T04:26:19;23.50;99.90
15409;DHT22;7803;48.130;13.788;2023-09-07T04:29:21;23.50;99.90
15409;DHT22;7803;48.130;13.788;2023-09-07T04:32:23;23.50;99.90
15409;DHT22;7803;48.130;13.788;2023-09-07T04:35:28;23.50;99.90
15409;DHT22;7803;48.130;13.788;2023-09-07T04:38:31;23.50;99.90
15409;DHT22;7803;48.130;13.788;2023-09-07T04:41:34;23.50;99.90
15409;DHT22;7803;48.130;13.788;2023-09-07T04:44:36;23.50;99.90
15409;DHT22;7803;48.130;13.788;2023-09-07T04:47:38;23.50;99.90
15409;DHT22;7803;48.130;13.788;2023-09-07T04:50:40;23.50;99.90
15409;DHT22;7803;48.130;13.788;2023-09-07T04:53:42;23.50;99.90
15409;DHT22;7803;48.130;13.788;2023-09-07T04:56:45;23.50;99.90
15409;DHT22;7803;48.130;13.788;2023-09-07T04:59:47;23.50;99.90
15409;DHT22;7803;48.130;13.788;2023-09-07T05:02:49;23.60;99.90
15409;DHT22;7803;48.130;13.788;2023-09-07T05:05:52;23.60;99.90
15409;DHT22;7803;48.130;13.788;2023-09-07T05:08:55;23.50;99.90
15409;DHT22;7803;48.130;13.788;2023-09-07T05:11:58;23.60;99.90
15409;DHT22;7803;48.130;13.788;2023-09-07T05:15:00;23.60;99.90
15409;DHT22;7803;48.130;13.788;2023-09-07T05:18:02;23.60;99.90
15409;DHT22;7803;48.130;13.788;2023-09-07T05:21:13;23.60;99.90
15409;DHT22;7803;48.130;13.788;2023-09-07T05:24:15;23.60;99.90
15409;DHT22;7803;48.130;13.788;2023-09-07T05:27:19;23.60;99.90
15409;DHT22;7803;48.130;13.788;2023-09-07T05:30:21;23.50;99.90
15409;DHT22;7803;48.130;13.788;2023-09-07T05:33:23;23.60;99.90
15409;DHT22;7803;48.130;13.788;2023-09-07T05:36:25;23.60;99.90
15409;DHT22;7803;48.130;13.788;2023-09-07T05:39:27;23.50;99.90
15409;DHT22;7803;48.130;13.788;2023-09-07T05:42:31;23.50;99.90
15409;DHT22;7803;48.130;13.788;2023-09-07T05:45:34;23.50;99.90
15409;DHT22;7803;48.130;13.788;2023-09-07T05:48:37;23.50;99.90
15409;DHT22;7803;48.130;13.788;2023-09-07T05:51:39;23.50;99.90
15409;DHT22;7803;48.130;13.788;2023-09-07T05:54:41;23.50;99.90
15409;DHT22;7803;48.130;13.788;2023-09-07T05:57:44;23.60;99.90
15409;DHT22;7803;48.130;13.788;2023-09-07T06:00:47;23.60;99.90
15409;DHT22;7803;48.130;13.788;2023-09-07T06:03:49;23.60;99.90
15409;DHT22;7803;48.130;13.788;2023-09-07T06:06:51;23.60;99.90
15409;DHT22;7803;48.130;13.788;2023-09-07T06:09:53;23.50;99.90
15409;DHT22;7803;48.130;13.788;2023-09-07T06:12:56;23.60;99.90
15409;DHT22;7803;48.130;13.788;2023-09-07T06:15:58;23.60;99.90
15409;DHT22;7803;48.130;13.788;2023-09-07T06:19:01;23.60;99.90
15409;DHT22;7803;48.130;13.788;2023-09-07T06:22:03;23.70;99.90
15409;DHT22;7803;48.130;13.788;2023-09-07T06:25:05;23.60;99.90
15409;DHT22;7803;48.130;13.788;2023-09-07T06:28:09;23.60;99.90
15409;DHT22;7803;48.130;13.788;2023-09-07T06:31:11;23.60;99.90
15409;DHT22;7803;48.130;13.788;2023-09-07T06:34:13;23.60;99.90
15409;DHT22;7803;48.130;13.788;2023-09-07T06:37:15;23.60;99.90
15409;DHT22;7803;48.130;13.788;2023-09-07T06:40:17;23.60;99.90
15409;DHT22;7803;48.130;13.788;2023-09-07T06:43:21;23.70;99.90
15409;DHT22;7803;48.130;13.788;2023-09-07T06:46:23;23.70;99.90
15409;DHT22;7803;48.130;13.788;2023-09-07T06:49:25;23.70;99.90
15409;DHT22;7803;48.130;13.788;2023-09-07T06:52:30;23.80;99.90
15409;DHT22;7803;48.130;13.788;2023-09-07T06:55:32;23.90;99.90
15409;DHT22;7803;48.130;13.788;2023-09-07T06:58:36;23.90;99.90
15409;DHT22;7803;48.130;13.788;2023-09-07T07:01:38;23.90;99.90
15409;DHT22;7803;48.130;13.788;2023-09-07T07:04:40;23.90;99.90
15409;DHT22;7803;48.130;13.788;2023-09-07T07:07:44;24.00;99.90
15409;DHT22;7803;48.130;13.788;2023-09-07T07:10:46;24.00;99.90
15409;DHT22;7803;48.130;13.788;2023-09-07T07:13:49;24.00;99.90
15409;DHT22;7803;48.130;13.788;2023-09-07T07:16:51;24.00;99.90
15409;DHT22;7803;48.130;13.788;2023-09-07T07:19:53;24.00;99.90
15409;DHT22;7803;48.130;13.788;2023-09-07T07:22:55;24.00;99.90
15409;DHT22;7803;48.130;13.788;2023-09-07T07:25:57;24.00;99.90
15409;DHT22;7803;48.130;13.788;2023-09-07T07:29:01;23.90;99.90
15409;DHT22;7803;48.130;13.788;2023-09-07T07:32:03;23.90;99.90
15409;DHT22;7803;48.130;13.788;2023-09-07T07:35:06;23.90;99.90
15409;DHT22;7803;48.130;13.788;2023-09-07T07:38:08;23.90;99.90
15409;DHT22;7803;48.130;13.788;2023-09-07T07:41:10;23.90;99.90
15409;DHT22;7803;48.130;13.788;2023-09-07T07:44:13;23.90;99.90
15409;DHT22;7803;48.130;13.788;2023-09-07T07:47:15;23.90;99.90
15409;DHT22;7803;48.130;13.788;2023-09-07T07:50:17;23.90;99.90
15409;DHT22;7803;48.130;13.788;2023-09-07T07:53:19;23.90;99.90
15409;DHT22;7803;48.130;13.788;2023-09-07T07:56:21;23.90;99.90
15409;DHT22;7803;48.130;13.788;2023-09-07T07:59:24;23.90;99.90
15409;DHT22;7803;48.130;13.788;2023-09-07T08:02:26;23.90;99.90
15409;DHT22;7803;48.130;13.788;2023-09-07T08:05:29;23.90;99.90
15409;DHT22;7803;48.130;13.788;2023-09-07T08:08:31;23.90;99.90
15409;DHT22;7803;48.130;13.788;2023-09-07T08:11:33;23.90;99.90
15409;DHT22;7803;48.130;13.788;2023-09-07T08:14:36;23.90;99.90
15409;DHT22;7803;48.130;13.788;2023-09-07T08:17:38;23.90;99.90
15409;DHT22;7803;48.130;13.788;2023-09-07T08:20:40;23.90;99.90
15409;DHT22;7803;48.130;13.788;2023-09-07T08:23:42;23.90;99.90
15409;DHT22;7803;48.130;13.788;2023-09-07T08:26:44;23.90;99.90
15409;DHT22;7803;48.130;13.788;2023-09-07T08:29:47;23.90;99.90
15409;DHT22;7803;48.130;13.788;2023-09-07T08:32:52;23.90;99.90
15409;DHT22;7803;48.130;13.788;2023-09-07T08:35:54;23.90;99.90
15409;DHT22;7803;48.130;13.788;2023-09-07T08:38:56;23.90;99.90
15409;DHT22;7803;48.130;13.788;2023-09-07T08:42:00;23.90;99.90
15409;DHT22;7803;48.130;13.788;2023-09-07T08:45:05;23.90;99.90
15409;DHT22;7803;48.130;13.788;2023-09-07T08:48:10;23.90;99.90
15409;DHT22;7803;48.130;13.788;2023-09-07T08:51:15;23.90;99.90
15409;DHT22;7803;48.130;13.788;2023-09-07T08:54:17;23.90;99.90
15409;DHT22;7803;48.130;13.788;2023-09-07T08:57:21;23.90;99.90
15409;DHT22;7803;48.130;13.788;2023-09-07T09:00:24;23.90;99.90
15409;DHT22;7803;48.130;13.788;2023-09-07T09:03:26;23.90;99.90
15409;DHT22;7803;48.130;13.788;2023-09-07T09:06:29;23.90;99.90
15409;DHT22;7803;48.130;13.788;2023-09-07T09:09:31;23.90;99.90
15409;DHT22;7803;48.130;13.788;2023-09-07T09:12:33;23.90;99.90
15409;DHT22;7803;48.130;13.788;2023-09-07T09:15:37;23.90;99.90
15409;DHT22;7803;48.130;13.788;2023-09-07T09:18:46;23.90;99.90
15409;DHT22;7803;48.130;13.788;2023-09-07T09:21:48;23.90;99.90
15409;DHT22;7803;48.130;13.788;2023-09-07T09:24:51;24.00;99.90
15409;DHT22;7803;48.130;13.788;2023-09-07T09:27:53;23.90;99.90
15409;DHT22;7803;48.130;13.788;2023-09-07T09:30:56;24.00;99.90
15409;DHT22;7803;48.130;13.788;2023-09-07T09:33:59;24.00;99.90
15409;DHT22;7803;48.130;13.788;2023-09-07T09:37:01;24.00;99.90
15409;DHT22;7803;48.130;13.788;2023-09-07T09:40:05;24.00;99.90
15409;DHT22;7803;48.130;13.788;2023-09-07T09:43:12;24.00;99.90
15409;DHT22;7803;48.130;13.788;2023-09-07T09:46:15;23.90;99.90
15409;DHT22;7803;48.130;13.788;2023-09-07T09:49:17;24.00;99.90
15409;DHT22;7803;48.130;13.788;2023-09-07T09:52:22;24.00;99.90
15409;DHT22;7803;48.130;13.788;2023-09-07T09:55:25;24.00;99.90
15409;DHT22;7803;48.130;13.788;2023-09-07T09:58:27;24.00;99.90
15409;DHT22;7803;48.130;13.788;2023-09-07T10:01:38;24.00;99.90
15409;DHT22;7803;48.130;13.788;2023-09-07T10:04:42;24.00;99.90
15409;DHT22;7803;48.130;13.788;2023-09-07T10:07:47;24.10;99.90
15409;DHT22;7803;48.130;13.788;2023-09-07T10:10:53;24.10;99.90
15409;DHT22;7803;48.130;13.788;2023-09-07T10:13:58;24.10;99.90
15409;DHT22;7803;48.130;13.788;2023-09-07T10:17:02;24.10;99.90
15409;DHT22;7803;48.130;13.788;2023-09-07T10:20:06;24.10;99.90
15409;DHT22;7803;48.130;13.788;2023-09-07T10:23:08;24.10;99.90
15409;DHT22;7803;48.130;13.788;2023-09-07T10:26:12;24.10;99.90
15409;DHT22;7803;48.130;13.788;2023-09-07T10:29:14;24.10;99.90
15409;DHT22;7803;48.130;13.788;2023-09-07T10:32:17;24.10;99.90
15409;DHT22;7803;48.130;13.788;2023-09-07T10:35:20;24.10;99.90
15409;DHT22;7803;48.130;13.788;2023-09-07T10:38:24;24.10;99.90
15409;DHT22;7803;48.130;13.788;2023-09-07T10:41:26;24.20;99.90
15409;DHT22;7803;48.130;13.788;2023-09-07T10:44:29;24.20;99.90
15409;DHT22;7803;48.130;13.788;2023-09-07T10:47:34;24.30;99.90
15409;DHT22;7803;48.130;13.788;2023-09-07T10:50:43;24.40;99.90
15409;DHT22;7803;48.130;13.788;2023-09-07T10:53:45;24.50;99.90
15409;DHT22;7803;48.130;13.788;2023-09-07T10:56:49;24.60;99.90
15409;DHT22;7803;48.130;13.788;2023-09-07T10:59:51;24.70;99.90
15409;DHT22;7803;48.130;13.788;2023-09-07T11:02:57;24.80;99.90
15409;DHT22;7803;48.130;13.788;2023-09-07T11:06:00;24.90;99.90
15409;DHT22;7803;48.130;13.788;2023-09-07T11:09:04;25.00;99.90
15409;DHT22;7803;48.130;13.788;2023-09-07T11:12:12;25.20;99.90
15409;DHT22;7803;48.130;13.788;2023-09-07T11:15:14;25.20;99.90
15409;DHT22;7803;48.130;13.788;2023-09-07T11:18:21;25.50;99.90
15409;DHT22;7803;48.130;13.788;2023-09-07T11:21:23;25.70;99.90
15409;DHT22;7803;48.130;13.788;2023-09-07T11:24:26;25.80;99.90
15409;DHT22;7803;48.130;13.788;2023-09-07T11:27:29;25.90;99.90
15409;DHT22;7803;48.130;13.788;2023-09-07T11:30:31;25.80;99.90
15409;DHT22;7803;48.130;13.788;2023-09-07T11:33:35;25.80;99.90
15409;DHT22;7803;48.130;13.788;2023-09-07T11:36:37;25.80;99.90
15409;DHT22;7803;48.130;13.788;2023-09-07T11:39:39;25.70;99.90
15409;DHT22;7803;48.130;13.788;2023-09-07T11:42:41;25.60;99.90
15409;DHT22;7803;48.130;13.788;2023-09-07T11:45:44;25.50;99.90
15409;DHT22;7803;48.130;13.788;2023-09-07T11:48:47;25.40;99.90
15409;DHT22;7803;48.130;13.788;2023-09-07T11:51:49;25.40;99.90
15409;DHT22;7803;48.130;13.788;2023-09-07T11:54:51;25.30;99.90
15409;DHT22;7803;48.130;13.788;2023-09-07T11:57:53;25.20;99.90
15409;DHT22;7803;48.130;13.788;2023-09-07T12:00:55;25.20;99.90
15409;DHT22;7803;48.130;13.788;2023-09-07T12:03:59;25.20;99.90
15409;DHT22;7803;48.130;13.788;2023-09-07T12:07:01;25.10;99.90
15409;DHT22;7803;48.130;13.788;2023-09-07T12:10:04;25.10;99.90
15409;DHT22;7803;48.130;13.788;2023-09-07T12:13:06;25.00;99.90
15409;DHT22;7803;48.130;13.788;2023-09-07T12:16:09;25.10;99.90
15409;DHT22;7803;48.130;13.788;2023-09-07T12:19:12;25.00;99.90
15409;DHT22;7803;48.130;13.788;2023-09-07T12:22:14;25.00;99.90
15409;DHT22;7803;48.130;13.788;2023-09-07T12:25:16;24.90;99.90
15409;DHT22;7803;48.130;13.788;2023-09-07T12:28:18;24.90;99.90
15409;DHT22;7803;48.130;13.788;2023-09-07T12:31:21;24.90;99.90
15409;DHT22;7803;48.130;13.788;2023-09-07T12:34:24;24.90;99.90
15409;DHT22;7803;48.130;13.788;2023-09-07T12:37:26;24.90;99.90
15409;DHT22;7803;48.130;13.788;2023-09-07T12:40:28;24.80;99.90
15409;DHT22;7803;48.130;13.788;2023-09-07T12:43:30;24.90;99.90
15409;DHT22;7803;48.130;13.788;2023-09-07T12:46:32;24.80;99.90
15409;DHT22;7803;48.130;13.788;2023-09-07T12:49:37;24.80;99.90
15409;DHT22;7803;48.130;13.788;2023-09-07T12:52:40;24.80;99.90
15409;DHT22;7803;48.130;13.788;2023-09-07T12:55:42;24.70;99.90
15409;DHT22;7803;48.130;13.788;2023-09-07T12:58:44;24.70;99.90
15409;DHT22;7803;48.130;13.788;2023-09-07T13:01:46;24.70;99.90
15409;DHT22;7803;48.130;13.788;2023-09-07T13:04:49;24.70;99.90
15409;DHT22;7803;48.130;13.788;2023-09-07T13:07:51;24.70;99.90
15409;DHT22;7803;48.130;13.788;2023-09-07T13:10:55;24.70;99.90
15409;DHT22;7803;48.130;13.788;2023-09-07T13:13:57;24.60;99.90
15409;DHT22;7803;48.130;13.788;2023-09-07T13:16:59;24.70;99.90
15409;DHT22;7803;48.130;13.788;2023-09-07T13:20:03;24.70;99.90
15409;DHT22;7803;48.130;13.788;2023-09-07T13:23:05;24.60;99.90
15409;DHT22;7803;48.130;13.788;2023-09-07T13:26:07;24.60;99.90
15409;DHT22;7803;48.130;13.788;2023-09-07T13:29:09;24.70;99.90
15409;DHT22;7803;48.130;13.788;2023-09-07T13:32:11;24.60;99.90
15409;DHT22;7803;48.130;13.788;2023-09-07T13:35:15;24.60;99.90
15409;DHT22;7803;48.130;13.788;2023-09-07T13:38:17;24.60;99.90
15409;DHT22;7803;48.130;13.788;2023-09-07T13:41:19;24.60;99.90
15409;DHT22;7803;48.130;13.788;2023-09-07T13:44:21;24.60;99.90
15409;DHT22;7803;48.130;13.788;2023-09-07T13:47:23;24.60;99.90
15409;DHT22;7803;48.130;13.788;2023-09-07T13:50:26;24.60;99.90
15409;DHT22;7803;48.130;13.788;2023-09-07T13:53:29;24.60;99.90
15409;DHT22;7803;48.130;13.788;2023-09-07T13:56:32;24.60;99.90
15409;DHT22;7803;48.130;13.788;2023-09-07T13:59:34;24.60;99.90
15409;DHT22;7803;48.130;13.788;2023-09-07T14:02:36;24.60;99.90
15409;DHT22;7803;48.130;13.788;2023-09-07T14:05:40;24.50;99.90
15409;DHT22;7803;48.130;13.788;2023-09-07T14:08:43;24.50;99.90
15409;DHT22;7803;48.130;13.788;2023-09-07T14:11:45;24.50;99.90
15409;DHT22;7803;48.130;13.788;2023-09-07T14:14:47;24.60;99.90
15409;DHT22;7803;48.130;13.788;2023-09-07T14:17:49;24.50;99.90
15409;DHT22;7803;48.130;13.788;2023-09-07T14:20:53;24.50;99.90
15409;DHT22;7803;48.130;13.788;2023-09-07T14:23:58;24.50;99.90
15409;DHT22;7803;48.130;13.788;2023-09-07T14:27:02;24.50;99.90
15409;DHT22;7803;48.130;13.788;2023-09-07T14:30:05;24.50;99.90
15409;DHT22;7803;48.130;13.788;2023-09-07T14:33:08;24.50;99.90
15409;DHT22;7803;48.130;13.788;2023-09-07T14:36:11;24.50;99.90
15409;DHT22;7803;48.130;13.788;2023-09-07T14:39:13;24.50;99.90
15409;DHT22;7803;48.130;13.788;2023-09-07T14:42:16;24.50;99.90
15409;DHT22;7803;48.130;13.788;2023-09-07T14:45:20;24.50;99.90
15409;DHT22;7803;48.130;13.788;2023-09-07T14:48:22;24.50;99.90
15409;DHT22;7803;48.130;13.788;2023-09-07T14:51:27;24.50;99.90
15409;DHT22;7803;48.130;13.788;2023-09-07T14:54:29;24.50;99.90
15409;DHT22;7803;48.130;13.788;2023-09-07T14:57:32;24.50;99.90
15409;DHT22;7803;48.130;13.788;2023-09-07T15:00:34;24.50;99.90
15409;DHT22;7803;48.130;13.788;2023-09-07T15:03:40;24.50;99.90
15409;DHT22;7803;48.130;13.788;2023-09-07T15:06:44;24.50;99.90
15409;DHT22;7803;48.130;13.788;2023-09-07T15:09:50;24.50;99.90
15409;DHT22;7803;48.130;13.788;2023-09-07T15:12:52;24.50;99.90
15409;DHT22;7803;48.130;13.788;2023-09-07T15:15:55;24.50;99.90
15409;DHT22;7803;48.130;13.788;2023-09-07T15:18:58;24.50;99.90
15409;DHT22;7803;48.130;13.788;2023-09-07T15:22:03;24.50;99.90
15409;DHT22;7803;48.130;13.788;2023-09-07T15:25:06;24.50;99.90
15409;DHT22;7803;48.130;13.788;2023-09-07T15:28:09;24.40;99.90
15409;DHT22;7803;48.130;13.788;2023-09-07T15:31:12;24.40;99.90
15409;DHT22;7803;48.130;13.788;2023-09-07T15:34:15;24.50;99.90
15409;DHT22;7803;48.130;13.788;2023-09-07T15:37:21;24.40;99.90
15409;DHT22;7803;48.130;13.788;2023-09-07T15:40:25;24.40;99.90
15409;DHT22;7803;48.130;13.788;2023-09-07T15:43:29;24.40;99.90
15409;DHT22;7803;48.130;13.788;2023-09-07T15:46:33;24.40;99.90
15409;DHT22;7803;48.130;13.788;2023-09-07T15:49:37;24.40;99.90
15409;DHT22;7803;48.130;13.788;2023-09-07T15:52:48;24.40;99.90
15409;DHT22;7803;48.130;13.788;2023-09-07T15:55:53;24.40;99.90
15409;DHT22;7803;48.130;13.788;2023-09-07T15:58:57;24.40;99.90
15409;DHT22;7803;48.130;13.788;2023-09-07T16:02:02;24.40;99.90
15409;DHT22;7803;48.130;13.788;2023-09-07T16:05:06;24.40;99.90
15409;DHT22;7803;48.130;13.788;2023-09-07T16:08:12;24.40;99.90
15409;DHT22;7803;48.130;13.788;2023-09-07T16:11:17;24.40;99.90
15409;DHT22;7803;48.130;13.788;2023-09-07T16:14:22;24.40;99.90
15409;DHT22;7803;48.130;13.788;2023-09-07T16:17:28;24.40;99.90
15409;DHT22;7803;48.130;13.788;2023-09-07T16:20:32;24.40;99.90
15409;DHT22;7803;48.130;13.788;2023-09-07T16:23:38;24.40;99.90
15409;DHT22;7803;48.130;13.788;2023-09-07T16:26:42;24.40;99.90
15409;DHT22;7803;48.130;13.788;2023-09-07T16:29:46;24.40;99.90
15409;DHT22;7803;48.130;13.788;2023-09-07T16:32:50;24.40;99.90
15409;DHT22;7803;48.130;13.788;2023-09-07T16:35:54;24.30;99.90
15409;DHT22;7803;48.130;13.788;2023-09-07T16:38:59;24.40;99.90
15409;DHT22;7803;48.130;13.788;2023-09-07T16:42:04;24.40;99.90
15409;DHT22;7803;48.130;13.788;2023-09-07T16:45:09;24.40;99.90
15409;DHT22;7803;48.130;13.788;2023-09-07T16:48:12;24.40;99.90
15409;DHT22;7803;48.130;13.788;2023-09-07T16:51:16;24.40;99.90
15409;DHT22;7803;48.130;13.788;2023-09-07T16:54:22;24.40;99.90
15409;DHT22;7803;48.130;13.788;2023-09-07T16:57:27;24.40;99.90
15409;DHT22;7803;48.130;13.788;2023-09-07T17:00:33;24.40;99.90
15409;DHT22;7803;48.130;13.788;2023-09-07T17:03:37;24.40;99.90
15409;DHT22;7803;48.130;13.788;2023-09-07T17:06:42;24.40;99.90
15409;DHT22;7803;48.130;13.788;2023-09-07T17:09:47;24.40;99.90
15409;DHT22;7803;48.130;13.788;2023-09-07T17:12:51;24.30;99.90
15409;DHT22;7803;48.130;13.788;2023-09-07T17:15:56;24.30;99.90
15409;DHT22;7803;48.130;13.788;2023-09-07T17:19:00;24.40;99.90
15409;DHT22;7803;48.130;13.788;2023-09-07T17:22:07;24.30;99.90
15409;DHT22;7803;48.130;13.788;2023-09-07T17:25:13;24.30;99.90
15409;DHT22;7803;48.130;13.788;2023-09-07T17:28:17;24.30;99.90
15409;DHT22;7803;48.130;13.788;2023-09-07T17:31:21;24.30;99.90
15409;DHT22;7803;48.130;13.788;2023-09-07T17:34:27;24.30;99.90
15409;DHT22;7803;48.130;13.788;2023-09-07T17:37:36;24.30;99.90
15409;DHT22;7803;48.130;13.788;2023-09-07T17:40:43;24.30;99.90
15409;DHT22;7803;48.130;13.788;2023-09-07T17:43:47;24.30;99.90
15409;DHT22;7803;48.130;13.788;2023-09-07T17:46:51;24.30;99.90
15409;DHT22;7803;48.130;13.788;2023-09-07T17:49:55;24.30;99.90
15409;DHT22;7803;48.130;13.788;2023-09-07T17:52:59;24.30;99.90
15409;DHT22;7803;48.130;13.788;2023-09-07T17:56:08;24.30;99.90
15409;DHT22;7803;48.130;13.788;2023-09-07T17:59:16;24.30;99.90
15409;DHT22;7803;48.130;13.788;2023-09-07T18:02:21;24.30;99.90
15409;DHT22;7803;48.130;13.788;2023-09-07T18:05:27;24.30;99.50
15409;DHT22;7803;48.130;13.788;2023-09-07T18:08:31;24.30;99.50
15409;DHT22;7803;48.130;13.788;2023-09-07T18:11:44;24.30;99.10
15409;DHT22;7803;48.130;13.788;2023-09-07T18:14:48;24.30;99.00
15409;DHT22;7803;48.130;13.788;2023-09-07T18:17:54;24.30;99.00
15409;DHT22;7803;48.130;13.788;2023-09-07T18:21:05;24.30;99.10
15409;DHT22;7803;48.130;13.788;2023-09-07T18:24:12;24.30;99.00
15409;DHT22;7803;48.130;13.788;2023-09-07T18:27:20;24.30;98.90
15409;DHT22;7803;48.130;13.788;2023-09-07T18:30:24;24.30;99.10
15409;DHT22;7803;48.130;13.788;2023-09-07T18:33:31;24.30;99.10
15409;DHT22;7803;48.130;13.788;2023-09-07T18:36:35;24.30;99.20
15409;DHT22;7803;48.130;13.788;2023-09-07T18:39:44;24.30;99.70
15409;DHT22;7803;48.130;13.788;2023-09-07T18:42:51;24.30;99.90
15409;DHT22;7803;48.130;13.788;2023-09-07T18:45:56;24.30;99.90
15409;DHT22;7803;48.130;13.788;2023-09-07T18:49:02;24.30;99.90
15409;DHT22;7803;48.130;13.788;2023-09-07T18:52:06;24.30;99.90
15409;DHT22;7803;48.130;13.788;2023-09-07T18:55:11;24.30;99.90
15409;DHT22;7803;48.130;13.788;2023-09-07T18:58:18;24.30;99.90
15409;DHT22;7803;48.130;13.788;2023-09-07T19:01:23;24.30;99.90
15409;DHT22;7803;48.130;13.788;2023-09-07T19:04:30;24.30;99.90
15409;DHT22;7803;48.130;13.788;2023-09-07T19:07:41;24.30;99.90
15409;DHT22;7803;48.130;13.788;2023-09-07T19:10:45;24.30;99.90
15409;DHT22;7803;48.130;13.788;2023-09-07T19:13:51;24.30;99.90
15409;DHT22;7803;48.130;13.788;2023-09-07T19:16:55;24.20;99.90
15409;DHT22;7803;48.130;13.788;2023-09-07T19:20:01;24.30;99.90